Weather at Tchien Airport

Public forecast

Using degrees Celsius for public forecast. Weather courtesy of forecast.io.

Closest aviation weather report (METAR) to Tchien Airport

Report is more than 6 hours old.

Closest report is Man Airport, 80.6 nm (149.3 km) NNE. Retrieved 2019/11/12 17:00 UTC (1 year ago):

DIMN 121700Z VRB02KT 9999 FEW015 BKN260 32/23 Q1007 NOSIG

Closest aviation forecast (TAF) to Tchien Airport

Forecast is more than 6 hours old.

Closest forecast is Roberts International Airport, 133.2 nm (246.7 km) W. Retrieved 2021/03/04 06:18 UTC (9 hours ago):

TAF COR TAF COR GLRB 040500Z 0406/0506 22010KT 999 BKN018 BECMG 0407/0409 06004KT 4000 BR SCT011 TEMPO 0410/0414 24008KT 9999 TS BKN016 FEW026CB BECMG 0416/0418 25011KT SCT015